SWR2TM LIMC-LSZH
Flight info
| Callsign | SWR2TM |
|---|---|
| Flight time | 0h 32m |
| Altitude | 28000 |
| Route | PEPAG DCT CANNE Z651 KELIP |
| Aircraft | A321/M-SDE3FGHIRWY/LB1 |
Departure
| Time | 2026-05-06 21:46 |
|---|---|
| Airport | Milan Malpensa International Airport (LIMC) |
Arrival
| Time | 2026-05-06 22:18 |
|---|---|
| Airport | Zürich Airport (LSZH) |
| Time | Latitude | Longitude | Altitude | Speed | Heading |
|---|---|---|---|---|---|
| 2026-05-06 21:22 | 45.62410 | 8.71783 | 738 ft | 0 kts | 323° |
| 2026-05-06 21:33 | 45.62409 | 8.71784 | 740 ft | 2 kts | 323° |
| 2026-05-06 21:33 | 45.62388 | 8.71804 | 740 ft | 4 kts | 334° |
| 2026-05-06 21:34 | 45.62363 | 8.71817 | 739 ft | 4 kts | 349° |
| 2026-05-06 21:34 | 45.62341 | 8.71822 | 738 ft | 4 kts | 17° |
| 2026-05-06 21:34 | 45.62323 | 8.71801 | 740 ft | 4 kts | 70° |
| 2026-05-06 21:34 | 45.62319 | 8.71779 | 739 ft | 3 kts | 78° |
| 2026-05-06 21:35 | 45.62324 | 8.71814 | 739 ft | 2 kts | 79° |
| 2026-05-06 21:35 | 45.62324 | 8.71816 | 739 ft | 0 kts | 79° |
| 2026-05-06 21:37 | 45.62331 | 8.71865 | 741 ft | 12 kts | 79° |
| 2026-05-06 21:37 | 45.62348 | 8.71995 | 741 ft | 13 kts | 79° |
| 2026-05-06 21:37 | 45.62334 | 8.72111 | 741 ft | 12 kts | 143° |
| 2026-05-06 21:38 | 45.62250 | 8.72141 | 741 ft | 14 kts | 169° |
| 2026-05-06 21:38 | 45.62158 | 8.72166 | 741 ft | 13 kts | 169° |
| 2026-05-06 21:38 | 45.62070 | 8.72191 | 740 ft | 14 kts | 169° |
| 2026-05-06 21:38 | 45.61939 | 8.72227 | 742 ft | 22 kts | 168° |
| 2026-05-06 21:39 | 45.61791 | 8.72268 | 742 ft | 21 kts | 169° |
| 2026-05-06 21:39 | 45.61646 | 8.72298 | 742 ft | 20 kts | 181° |
| 2026-05-06 21:39 | 45.61510 | 8.72338 | 741 ft | 20 kts | 166° |
| 2026-05-06 21:39 | 45.61392 | 8.72346 | 741 ft | 12 kts | 220° |
| 2026-05-06 21:40 | 45.61377 | 8.72244 | 742 ft | 10 kts | 262° |
| 2026-05-06 21:40 | 45.61338 | 8.72194 | 742 ft | 10 kts | 172° |
| 2026-05-06 21:40 | 45.61226 | 8.72224 | 740 ft | 23 kts | 169° |
| 2026-05-06 21:40 | 45.61069 | 8.72268 | 742 ft | 23 kts | 169° |
| 2026-05-06 21:41 | 45.60915 | 8.72310 | 742 ft | 22 kts | 169° |
| 2026-05-06 21:41 | 45.60767 | 8.72351 | 742 ft | 21 kts | 169° |
| 2026-05-06 21:41 | 45.60648 | 8.72444 | 740 ft | 20 kts | 116° |
| 2026-05-06 21:41 | 45.60627 | 8.72647 | 742 ft | 23 kts | 96° |
| 2026-05-06 21:42 | 45.60610 | 8.72871 | 740 ft | 23 kts | 96° |
| 2026-05-06 21:42 | 45.60594 | 8.73090 | 742 ft | 22 kts | 96° |
| 2026-05-06 21:42 | 45.60644 | 8.73272 | 742 ft | 20 kts | 32° |
| 2026-05-06 21:42 | 45.60772 | 8.73348 | 740 ft | 20 kts | 22° |
| 2026-05-06 21:43 | 45.60899 | 8.73403 | 740 ft | 19 kts | 359° |
| 2026-05-06 21:43 | 45.61046 | 8.73366 | 742 ft | 22 kts | 349° |
| 2026-05-06 21:43 | 45.61195 | 8.73324 | 741 ft | 22 kts | 349° |
| 2026-05-06 21:43 | 45.61341 | 8.73283 | 742 ft | 21 kts | 349° |
| 2026-05-06 21:44 | 45.61483 | 8.73244 | 742 ft | 21 kts | 349° |
| 2026-05-06 21:44 | 45.61609 | 8.73234 | 742 ft | 15 kts | 40° |
| 2026-05-06 21:44 | 45.61630 | 8.73377 | 741 ft | 15 kts | 82° |
| 2026-05-06 21:44 | 45.61600 | 8.73508 | 741 ft | 14 kts | 119° |
| 2026-05-06 21:45 | 45.61588 | 8.73639 | 741 ft | 14 kts | 79° |
| 2026-05-06 21:45 | 45.61645 | 8.73727 | 739 ft | 13 kts | 357° |
| 2026-05-06 21:45 | 45.61748 | 8.73700 | 740 ft | 22 kts | 349° |
| 2026-05-06 21:45 | 45.62152 | 8.73590 | 740 ft | 95 kts | 349° |
| 2026-05-06 21:46 | 45.63004 | 8.73355 | 736 ft | 151 kts | 349° |
| 2026-05-06 21:46 | 45.64121 | 8.73054 | 1107 ft | 167 kts | 349° |
| 2026-05-06 21:46 | 45.65279 | 8.72748 | 1750 ft | 172 kts | 351° |
| 2026-05-06 21:46 | 45.66490 | 8.72559 | 2280 ft | 180 kts | 359° |
| 2026-05-06 21:47 | 45.67809 | 8.72561 | 2578 ft | 201 kts | 1° |
| 2026-05-06 21:47 | 45.69296 | 8.72574 | 2880 ft | 226 kts | 0° |
| 2026-05-06 21:47 | 45.70906 | 8.72592 | 3512 ft | 235 kts | 3° |
| 2026-05-06 21:47 | 45.72448 | 8.73330 | 4279 ft | 239 kts | 40° |
| 2026-05-06 21:48 | 45.73479 | 8.75148 | 5075 ft | 241 kts | 60° |
| 2026-05-06 21:48 | 45.74229 | 8.77304 | 5884 ft | 244 kts | 69° |
| 2026-05-06 21:48 | 45.74535 | 8.79683 | 6651 ft | 246 kts | 94° |
| 2026-05-06 21:48 | 45.74209 | 8.82121 | 7251 ft | 255 kts | 112° |
| 2026-05-06 21:49 | 45.73489 | 8.84474 | 7981 ft | 261 kts | 121° |
| 2026-05-06 21:49 | 45.72465 | 8.86631 | 8736 ft | 265 kts | 128° |
| 2026-05-06 21:49 | 45.71389 | 8.88815 | 9369 ft | 277 kts | 121° |
| 2026-05-06 21:49 | 45.70811 | 8.91532 | 9812 ft | 295 kts | 92° |
| 2026-05-06 21:50 | 45.71167 | 8.94436 | 10181 ft | 314 kts | 65° |
| 2026-05-06 21:50 | 45.72554 | 8.96922 | 10428 ft | 329 kts | 32° |
| 2026-05-06 21:50 | 45.74620 | 8.98130 | 11398 ft | 319 kts | 13° |
| 2026-05-06 21:50 | 45.76769 | 8.98949 | 12219 ft | 321 kts | 12° |
| 2026-05-06 21:51 | 45.78944 | 8.99747 | 12939 ft | 325 kts | 12° |
| 2026-05-06 21:51 | 45.81150 | 9.00555 | 13659 ft | 330 kts | 12° |
| 2026-05-06 21:51 | 45.83390 | 9.01387 | 14302 ft | 334 kts | 13° |
| 2026-05-06 21:51 | 45.85655 | 9.02243 | 14922 ft | 339 kts | 13° |
| 2026-05-06 21:52 | 45.87916 | 9.03105 | 15558 ft | 343 kts | 13° |
| 2026-05-06 21:52 | 45.90241 | 9.03995 | 16182 ft | 347 kts | 13° |
| 2026-05-06 21:52 | 45.92590 | 9.04895 | 16813 ft | 352 kts | 12° |
| 2026-05-06 21:52 | 45.95012 | 9.05452 | 17421 ft | 354 kts | 0° |
| 2026-05-06 21:53 | 45.97472 | 9.05331 | 17995 ft | 355 kts | 348° |
| 2026-05-06 21:53 | 45.99871 | 9.04532 | 18571 ft | 355 kts | 337° |
| 2026-05-06 21:53 | 46.02124 | 9.03103 | 19130 ft | 354 kts | 326° |
| 2026-05-06 21:53 | 46.04167 | 9.01137 | 19654 ft | 355 kts | 319° |
| 2026-05-06 21:54 | 46.06173 | 8.99042 | 20234 ft | 358 kts | 319° |
| 2026-05-06 21:54 | 46.08175 | 8.96959 | 20802 ft | 361 kts | 319° |
| 2026-05-06 21:54 | 46.10224 | 8.94831 | 21361 ft | 365 kts | 319° |
| 2026-05-06 21:54 | 46.12289 | 8.92681 | 21923 ft | 368 kts | 319° |
| 2026-05-06 21:55 | 46.14415 | 8.90579 | 22445 ft | 374 kts | 325° |
| 2026-05-06 21:55 | 46.16779 | 8.88916 | 22923 ft | 383 kts | 335° |
| 2026-05-06 21:55 | 46.19358 | 8.87825 | 23465 ft | 391 kts | 345° |
| 2026-05-06 21:55 | 46.22073 | 8.87304 | 23898 ft | 396 kts | 351° |
| 2026-05-06 21:56 | 46.24838 | 8.86901 | 24290 ft | 402 kts | 350° |
| 2026-05-06 21:56 | 46.27591 | 8.86488 | 24640 ft | 406 kts | 349° |
| 2026-05-06 21:56 | 46.30415 | 8.86058 | 25038 ft | 409 kts | 349° |
| 2026-05-06 21:56 | 46.33255 | 8.85625 | 25430 ft | 412 kts | 349° |
| 2026-05-06 21:57 | 46.36125 | 8.85189 | 25806 ft | 416 kts | 349° |
| 2026-05-06 21:57 | 46.39014 | 8.84752 | 26229 ft | 418 kts | 349° |
| 2026-05-06 21:57 | 46.41915 | 8.84320 | 26691 ft | 420 kts | 350° |
| 2026-05-06 21:57 | 46.44825 | 8.83886 | 27069 ft | 422 kts | 350° |
| 2026-05-06 21:58 | 46.46764 | 8.83595 | 27316 ft | 424 kts | 349° |
| 2026-05-06 21:58 | 46.49711 | 8.83148 | 27693 ft | 427 kts | 349° |
| 2026-05-06 21:58 | 46.53639 | 8.82551 | 27948 ft | 429 kts | 349° |
| 2026-05-06 21:58 | 46.56613 | 8.82100 | 27974 ft | 429 kts | 349° |
| 2026-05-06 21:59 | 46.59583 | 8.81649 | 27977 ft | 429 kts | 349° |
| 2026-05-06 21:59 | 46.61592 | 8.81343 | 27973 ft | 430 kts | 349° |
| 2026-05-06 21:59 | 46.64525 | 8.80897 | 27976 ft | 430 kts | 349° |
| 2026-05-06 21:59 | 46.67500 | 8.80448 | 27971 ft | 430 kts | 350° |
| 2026-05-06 22:00 | 46.70476 | 8.80000 | 27970 ft | 430 kts | 349° |
| 2026-05-06 22:00 | 46.73448 | 8.79552 | 27978 ft | 430 kts | 350° |
| 2026-05-06 22:00 | 46.76427 | 8.79103 | 27981 ft | 430 kts | 349° |
| 2026-05-06 22:00 | 46.79404 | 8.78652 | 27987 ft | 431 kts | 349° |
| 2026-05-06 22:01 | 46.82391 | 8.78197 | 27994 ft | 431 kts | 349° |
| 2026-05-06 22:01 | 46.85372 | 8.77742 | 27992 ft | 431 kts | 350° |
| 2026-05-06 22:01 | 46.88314 | 8.77291 | 27987 ft | 431 kts | 350° |
| 2026-05-06 22:01 | 46.91313 | 8.76827 | 27974 ft | 438 kts | 350° |
| 2026-05-06 22:02 | 46.94388 | 8.76345 | 27967 ft | 449 kts | 350° |
| 2026-05-06 22:02 | 46.97513 | 8.75855 | 27960 ft | 453 kts | 350° |
| 2026-05-06 22:02 | 47.00643 | 8.75364 | 27623 ft | 450 kts | 350° |
| 2026-05-06 22:02 | 47.03746 | 8.74878 | 27035 ft | 445 kts | 350° |
| 2026-05-06 22:03 | 47.06802 | 8.74397 | 26547 ft | 438 kts | 350° |
| 2026-05-06 22:03 | 47.09796 | 8.73811 | 26037 ft | 431 kts | 348° |
| 2026-05-06 22:03 | 47.12729 | 8.73090 | 25547 ft | 423 kts | 346° |
| 2026-05-06 22:03 | 47.15556 | 8.72304 | 25070 ft | 416 kts | 346° |
| 2026-05-06 22:04 | 47.18370 | 8.71483 | 24621 ft | 409 kts | 346° |
| 2026-05-06 22:04 | 47.21138 | 8.70680 | 24172 ft | 403 kts | 346° |
| 2026-05-06 22:04 | 47.23871 | 8.69913 | 23740 ft | 397 kts | 347° |
| 2026-05-06 22:04 | 47.26542 | 8.69044 | 23270 ft | 389 kts | 341° |
| 2026-05-06 22:05 | 47.29044 | 8.67666 | 22822 ft | 380 kts | 333° |
| 2026-05-06 22:05 | 47.31440 | 8.66037 | 21797 ft | 380 kts | 333° |
| 2026-05-06 22:05 | 47.33843 | 8.64391 | 20728 ft | 381 kts | 333° |
| 2026-05-06 22:05 | 47.36218 | 8.62762 | 19693 ft | 373 kts | 333° |
| 2026-05-06 22:06 | 47.38469 | 8.60985 | 18746 ft | 363 kts | 326° |
| 2026-05-06 22:06 | 47.40585 | 8.59113 | 17733 ft | 356 kts | 326° |
| 2026-05-06 22:06 | 47.42641 | 8.57039 | 16982 ft | 356 kts | 315° |
| 2026-05-06 22:06 | 47.44298 | 8.54455 | 16746 ft | 340 kts | 304° |
| 2026-05-06 22:07 | 47.45518 | 8.51536 | 16313 ft | 331 kts | 291° |
| 2026-05-06 22:07 | 47.46277 | 8.48377 | 15864 ft | 323 kts | 280° |
| 2026-05-06 22:07 | 47.46637 | 8.45135 | 15427 ft | 317 kts | 275° |
| 2026-05-06 22:07 | 47.46945 | 8.41921 | 14974 ft | 314 kts | 275° |
| 2026-05-06 22:08 | 47.47248 | 8.38779 | 14550 ft | 312 kts | 275° |
| 2026-05-06 22:08 | 47.47551 | 8.35622 | 14117 ft | 309 kts | 275° |
| 2026-05-06 22:08 | 47.47854 | 8.32482 | 13674 ft | 308 kts | 275° |
| 2026-05-06 22:08 | 47.48153 | 8.29371 | 13208 ft | 304 kts | 276° |
| 2026-05-06 22:09 | 47.48445 | 8.26294 | 12766 ft | 300 kts | 275° |
| 2026-05-06 22:09 | 47.48731 | 8.23252 | 12333 ft | 297 kts | 275° |
| 2026-05-06 22:09 | 47.49018 | 8.20204 | 11835 ft | 306 kts | 276° |
| 2026-05-06 22:09 | 47.49321 | 8.17069 | 11338 ft | 309 kts | 278° |
| 2026-05-06 22:10 | 47.50049 | 8.14095 | 10822 ft | 311 kts | 298° |
| 2026-05-06 22:10 | 47.51471 | 8.11691 | 10327 ft | 314 kts | 319° |
| 2026-05-06 22:10 | 47.53385 | 8.10207 | 9854 ft | 319 kts | 340° |
| 2026-05-06 22:10 | 47.55596 | 8.09848 | 9329 ft | 324 kts | 2° |
| 2026-05-06 22:11 | 47.57762 | 8.10748 | 8796 ft | 327 kts | 25° |
| 2026-05-06 22:11 | 47.59680 | 8.12443 | 8313 ft | 311 kts | 30° |
| 2026-05-06 22:11 | 47.61452 | 8.14109 | 7904 ft | 296 kts | 33° |
| 2026-05-06 22:11 | 47.62971 | 8.16159 | 7499 ft | 296 kts | 46° |
| 2026-05-06 22:12 | 47.64361 | 8.18387 | 7247 ft | 290 kts | 45° |
| 2026-05-06 22:12 | 47.65550 | 8.20788 | 7116 ft | 290 kts | 63° |
| 2026-05-06 22:12 | 47.66185 | 8.23586 | 6698 ft | 290 kts | 84° |
| 2026-05-06 22:12 | 47.66160 | 8.26499 | 6441 ft | 277 kts | 104° |
| 2026-05-06 22:13 | 47.65569 | 8.29081 | 6158 ft | 253 kts | 123° |
| 2026-05-06 22:13 | 47.64605 | 8.31084 | 5863 ft | 228 kts | 141° |
| 2026-05-06 22:13 | 47.63483 | 8.32642 | 5567 ft | 217 kts | 143° |
| 2026-05-06 22:13 | 47.62382 | 8.34160 | 5278 ft | 216 kts | 143° |
| 2026-05-06 22:14 | 47.61297 | 8.35653 | 4995 ft | 215 kts | 143° |
| 2026-05-06 22:14 | 47.60221 | 8.37137 | 4720 ft | 205 kts | 143° |
| 2026-05-06 22:14 | 47.59206 | 8.38535 | 4443 ft | 194 kts | 143° |
| 2026-05-06 22:14 | 47.58238 | 8.39866 | 4187 ft | 182 kts | 143° |
| 2026-05-06 22:15 | 47.57337 | 8.41106 | 3933 ft | 173 kts | 144° |
| 2026-05-06 22:15 | 47.56479 | 8.42283 | 3702 ft | 162 kts | 143° |
| 2026-05-06 22:15 | 47.55669 | 8.43394 | 3484 ft | 156 kts | 143° |
| 2026-05-06 22:15 | 47.54879 | 8.44476 | 3294 ft | 154 kts | 143° |
| 2026-05-06 22:16 | 47.54096 | 8.45547 | 3082 ft | 153 kts | 143° |
| 2026-05-06 22:16 | 47.53323 | 8.46607 | 2904 ft | 152 kts | 143° |
| 2026-05-06 22:16 | 47.52563 | 8.47647 | 2688 ft | 149 kts | 142° |
| 2026-05-06 22:16 | 47.51810 | 8.48679 | 2476 ft | 147 kts | 141° |
| 2026-05-06 22:17 | 47.51066 | 8.49692 | 2247 ft | 144 kts | 140° |
| 2026-05-06 22:17 | 47.50332 | 8.50686 | 2032 ft | 143 kts | 137° |
| 2026-05-06 22:17 | 47.49609 | 8.51691 | 1852 ft | 142 kts | 137° |
| 2026-05-06 22:17 | 47.48884 | 8.52685 | 1643 ft | 142 kts | 136° |
| 2026-05-06 22:18 | 47.48160 | 8.53673 | 1449 ft | 141 kts | 137° |
| 2026-05-06 22:18 | 47.47469 | 8.54622 | 1393 ft | 124 kts | 137° |
| 2026-05-06 22:18 | 47.46976 | 8.55292 | 1390 ft | 72 kts | 137° |
| 2026-05-06 22:18 | 47.46702 | 8.55667 | 1396 ft | 46 kts | 137° |
| 2026-05-06 22:19 | 47.46475 | 8.55916 | 1402 ft | 36 kts | 161° |
| 2026-05-06 22:19 | 47.46305 | 8.55981 | 1408 ft | 19 kts | 167° |
| 2026-05-06 22:19 | 47.46184 | 8.56003 | 1406 ft | 16 kts | 182° |
| 2026-05-06 22:19 | 47.46077 | 8.55987 | 1407 ft | 15 kts | 186° |
| 2026-05-06 22:20 | 47.45974 | 8.55968 | 1406 ft | 15 kts | 192° |
| 2026-05-06 22:20 | 47.45878 | 8.55922 | 1410 ft | 14 kts | 200° |
| 2026-05-06 22:20 | 47.45767 | 8.55876 | 1414 ft | 18 kts | 187° |
| 2026-05-06 22:20 | 47.45653 | 8.55833 | 1409 ft | 17 kts | 233° |
| 2026-05-06 22:21 | 47.45652 | 8.55652 | 1405 ft | 19 kts | 277° |
| 2026-05-06 22:21 | 47.45667 | 8.55450 | 1401 ft | 21 kts | 276° |
| 2026-05-06 22:21 | 47.45633 | 8.55340 | 1401 ft | 13 kts | 188° |
| 2026-05-06 22:21 | 47.45532 | 8.55401 | 1409 ft | 17 kts | 155° |
| 2026-05-06 22:22 | 47.45432 | 8.55471 | 1407 ft | 15 kts | 155° |
| 2026-05-06 22:22 | 47.45346 | 8.55530 | 1406 ft | 13 kts | 155° |
| 2026-05-06 22:22 | 47.45281 | 8.55593 | 1407 ft | 10 kts | 118° |
| 2026-05-06 22:22 | 47.45309 | 8.55643 | 1407 ft | 8 kts | 1° |
| 2026-05-06 22:23 | 47.45345 | 8.55646 | 1411 ft | 1 kts | 5° |
| 2026-05-06 22:23 | 47.45349 | 8.55647 | 1407 ft | 0 kts | 5° |